sensor_id;sensor_type;location;lat;lon;timestamp;pressure;altitude;pressure_sealevel;temperature;humidity
72585;BME280;60618;40.084;32.908;2023-09-12T00:01:38;89563.16;;;12.67;67.38
72585;BME280;60618;40.084;32.908;2023-09-12T00:04:05;89551.00;;;12.66;67.59
72585;BME280;60618;40.084;32.908;2023-09-12T00:06:33;89562.41;;;12.61;68.17
72585;BME280;60618;40.084;32.908;2023-09-12T00:08:59;89566.53;;;12.62;68.27
72585;BME280;60618;40.084;32.908;2023-09-12T00:11:26;89559.00;;;12.61;68.43
72585;BME280;60618;40.084;32.908;2023-09-12T00:13:53;89582.28;;;12.55;68.51
72585;BME280;60618;40.084;32.908;2023-09-12T00:16:20;89561.66;;;12.55;68.58
72585;BME280;60618;40.084;32.908;2023-09-12T00:18:47;89575.25;;;12.52;69.22
72585;BME280;60618;40.084;32.908;2023-09-12T00:21:16;89572.78;;;12.48;69.59
72585;BME280;60618;40.084;32.908;2023-09-12T00:23:43;89568.66;;;12.41;70.15
72585;BME280;60618;40.084;32.908;2023-09-12T00:26:10;89566.00;;;12.47;70.15
72585;BME280;60618;40.084;32.908;2023-09-12T00:28:37;89569.41;;;12.42;70.09
72585;BME280;60618;40.084;32.908;2023-09-12T00:31:04;89583.47;;;12.48;70.06
72585;BME280;60618;40.084;32.908;2023-09-12T00:33:31;89568.91;;;12.43;70.11
72585;BME280;60618;40.084;32.908;2023-09-12T00:35:58;89558.69;;;12.36;70.73
72585;BME280;60618;40.084;32.908;2023-09-12T00:38:25;89569.34;;;12.31;70.90
72585;BME280;60618;40.084;32.908;2023-09-12T00:40:52;89582.97;;;12.33;71.04
72585;BME280;60618;40.084;32.908;2023-09-12T00:43:19;89574.22;;;12.32;71.21
72585;BME280;60618;40.084;32.908;2023-09-12T00:45:46;89574.94;;;12.33;71.43
72585;BME280;60618;40.084;32.908;2023-09-12T00:48:14;89579.53;;;12.27;72.00
72585;BME280;60618;40.084;32.908;2023-09-12T00:50:42;89568.16;;;12.32;71.50
72585;BME280;60618;40.084;32.908;2023-09-12T00:53:10;89562.53;;;12.30;71.30
72585;BME280;60618;40.084;32.908;2023-09-12T00:55:40;89588.22;;;12.21;72.07
72585;BME280;60618;40.084;32.908;2023-09-12T00:58:10;89582.44;;;12.29;71.63
72585;BME280;60618;40.084;32.908;2023-09-12T01:00:37;89573.94;;;12.30;71.48
72585;BME280;60618;40.084;32.908;2023-09-12T01:03:04;89577.59;;;12.27;71.63
72585;BME280;60618;40.084;32.908;2023-09-12T01:05:31;89574.44;;;12.29;71.62
72585;BME280;60618;40.084;32.908;2023-09-12T01:07:59;89576.13;;;12.26;71.61
72585;BME280;60618;40.084;32.908;2023-09-12T01:10:27;89582.44;;;12.29;71.65
72585;BME280;60618;40.084;32.908;2023-09-12T01:12:54;89580.00;;;12.31;71.26
72585;BME280;60618;40.084;32.908;2023-09-12T01:15:21;89581.25;;;12.35;70.81
72585;BME280;60618;40.084;32.908;2023-09-12T01:17:48;89583.16;;;12.24;71.56
72585;BME280;60618;40.084;32.908;2023-09-12T01:20:28;89587.28;;;12.25;71.45
72585;BME280;60618;40.084;32.908;2023-09-12T01:28:39;89585.03;;;12.12;72.76
72585;BME280;60618;40.084;32.908;2023-09-12T01:31:07;89581.63;;;12.06;72.97
72585;BME280;60618;40.084;32.908;2023-09-12T01:33:34;89589.84;;;12.02;73.24
72585;BME280;60618;40.084;32.908;2023-09-12T01:36:01;89589.16;;;12.07;72.75
72585;BME280;60618;40.084;32.908;2023-09-12T01:38:28;89596.91;;;12.05;72.91
72585;BME280;60618;40.084;32.908;2023-09-12T01:40:55;89596.63;;;12.03;72.86
72585;BME280;60618;40.084;32.908;2023-09-12T01:43:24;89598.09;;;11.99;73.38
72585;BME280;60618;40.084;32.908;2023-09-12T01:45:57;89597.84;;;12.02;72.80
72585;BME280;60618;40.084;32.908;2023-09-12T01:48:34;89601.72;;;12.01;72.97
72585;BME280;60618;40.084;32.908;2023-09-12T01:51:02;89607.25;;;11.92;73.79
72585;BME280;60618;40.084;32.908;2023-09-12T01:53:31;89607.00;;;11.90;73.58
72585;BME280;60618;40.084;32.908;2023-09-12T01:56:00;89591.00;;;11.90;74.01
72585;BME280;60618;40.084;32.908;2023-09-12T01:58:26;89606.03;;;11.87;73.76
72585;BME280;60618;40.084;32.908;2023-09-12T02:00:54;89605.50;;;11.83;74.14
72585;BME280;60618;40.084;32.908;2023-09-12T02:03:21;89607.97;;;11.87;74.25
72585;BME280;60618;40.084;32.908;2023-09-12T02:05:48;89607.31;;;11.98;73.58
72585;BME280;60618;40.084;32.908;2023-09-12T02:08:15;89599.25;;;11.92;73.79
72585;BME280;60618;40.084;32.908;2023-09-12T02:10:42;89603.41;;;11.99;73.52
72585;BME280;60618;40.084;32.908;2023-09-12T02:13:09;89603.63;;;11.95;73.53
72585;BME280;60618;40.084;32.908;2023-09-12T02:15:36;89601.44;;;11.93;74.11
72585;BME280;60618;40.084;32.908;2023-09-12T02:18:03;89603.63;;;11.95;73.39
72585;BME280;60618;40.084;32.908;2023-09-12T02:20:32;89597.13;;;12.02;73.23
72585;BME280;60618;40.084;32.908;2023-09-12T02:22:58;89607.50;;;11.94;73.78
72585;BME280;60618;40.084;32.908;2023-09-12T02:25:25;89592.25;;;12.00;73.29
72585;BME280;60618;40.084;32.908;2023-09-12T02:27:52;89596.56;;;11.86;73.96
72585;BME280;60618;40.084;32.908;2023-09-12T02:30:19;89595.06;;;11.85;74.10
72585;BME280;60618;40.084;32.908;2023-09-12T02:32:46;89606.03;;;11.87;74.15
72585;BME280;60618;40.084;32.908;2023-09-12T02:35:14;89591.91;;;11.81;74.60
72585;BME280;60618;40.084;32.908;2023-09-12T02:37:41;89596.25;;;11.79;74.39
72585;BME280;60618;40.084;32.908;2023-09-12T02:40:08;89597.91;;;11.76;74.61
72585;BME280;60618;40.084;32.908;2023-09-12T02:42:35;89591.97;;;11.87;74.26
72585;BME280;60618;40.084;32.908;2023-09-12T02:45:03;89609.69;;;11.90;73.80
72585;BME280;60618;40.084;32.908;2023-09-12T02:47:30;89603.38;;;11.93;73.15
72585;BME280;60618;40.084;32.908;2023-09-12T02:49:57;89599.25;;;11.92;73.58
72585;BME280;60618;40.084;32.908;2023-09-12T02:52:24;89611.63;;;11.95;73.32
72585;BME280;60618;40.084;32.908;2023-09-12T02:54:51;89602.44;;;11.96;73.04
72585;BME280;60618;40.084;32.908;2023-09-12T02:57:18;89610.88;;;11.89;73.62
72585;BME280;60618;40.084;32.908;2023-09-12T02:59:45;89612.31;;;11.84;73.91
72585;BME280;60618;40.084;32.908;2023-09-12T03:02:12;89613.03;;;11.85;73.74
72585;BME280;60618;40.084;32.908;2023-09-12T03:04:39;89614.25;;;11.84;73.66
72585;BME280;60618;40.084;32.908;2023-09-12T03:07:05;89620.84;;;11.88;73.11
72585;BME280;60618;40.084;32.908;2023-09-12T03:09:32;89615.41;;;11.77;73.94
72585;BME280;60618;40.084;32.908;2023-09-12T03:12:02;89619.47;;;11.73;74.00
72585;BME280;60618;40.084;32.908;2023-09-12T03:14:30;89613.41;;;11.72;74.26
72585;BME280;60618;40.084;32.908;2023-09-12T03:16:57;89617.53;;;11.73;74.67
72585;BME280;60618;40.084;32.908;2023-09-12T03:19:24;89624.81;;;11.73;74.62
72585;BME280;60618;40.084;32.908;2023-09-12T03:21:51;89620.16;;;11.68;74.73
72585;BME280;60618;40.084;32.908;2023-09-12T03:24:18;89611.44;;;11.67;74.75
72585;BME280;60618;40.084;32.908;2023-09-12T03:26:45;89623.78;;;11.64;75.04
72585;BME280;60618;40.084;32.908;2023-09-12T03:29:12;89627.78;;;11.49;76.20
72585;BME280;60618;40.084;32.908;2023-09-12T03:31:39;89620.06;;;11.51;75.57
72585;BME280;60618;40.084;32.908;2023-09-12T03:34:06;89629.78;;;11.54;75.69
72585;BME280;60618;40.084;32.908;2023-09-12T03:36:33;89630.25;;;11.52;75.82
72585;BME280;60618;40.084;32.908;2023-09-12T03:39:00;89635.84;;;11.54;75.97
72585;BME280;60618;40.084;32.908;2023-09-12T03:41:27;89635.13;;;11.54;76.10
72585;BME280;60618;40.084;32.908;2023-09-12T03:43:54;89631.09;;;11.38;77.10
72585;BME280;60618;40.084;32.908;2023-09-12T03:46:21;89629.47;;;11.46;76.48
72585;BME280;60618;40.084;32.908;2023-09-12T03:48:49;89640.94;;;11.58;75.77
72585;BME280;60618;40.084;32.908;2023-09-12T03:51:15;89643.41;;;11.61;75.50
72585;BME280;60618;40.084;32.908;2023-09-12T03:53:43;89650.03;;;11.72;75.37
72585;BME280;60618;40.084;32.908;2023-09-12T03:56:10;89650.66;;;11.87;74.19
72585;BME280;60618;40.084;32.908;2023-09-12T03:58:37;89645.88;;;11.97;73.74
72585;BME280;60618;40.084;32.908;2023-09-12T04:01:04;89654.19;;;12.04;73.16
72585;BME280;60618;40.084;32.908;2023-09-12T04:03:30;89650.59;;;12.18;72.48
72585;BME280;60618;40.084;32.908;2023-09-12T04:05:58;89645.50;;;12.20;72.23
72585;BME280;60618;40.084;32.908;2023-09-12T04:08:25;89646.81;;;12.36;71.26
72585;BME280;60618;40.084;32.908;2023-09-12T04:10:52;89645.59;;;12.37;70.99
72585;BME280;60618;40.084;32.908;2023-09-12T04:13:19;89644.19;;;12.42;71.15
72585;BME280;60618;40.084;32.908;2023-09-12T04:15:46;89646.88;;;12.47;70.79
72585;BME280;60618;40.084;32.908;2023-09-12T04:18:13;89642.66;;;12.30;71.43
72585;BME280;60618;40.084;32.908;2023-09-12T04:20:40;89645.34;;;12.35;71.37
72585;BME280;60618;40.084;32.908;2023-09-12T04:23:07;89652.72;;;12.57;69.96
72585;BME280;60618;40.084;32.908;2023-09-12T04:25:34;89653.22;;;12.56;70.48
72585;BME280;60618;40.084;32.908;2023-09-12T04:28:01;89657.94;;;12.77;69.36
72585;BME280;60618;40.084;32.908;2023-09-12T04:30:28;89659.44;;;12.90;68.27
72585;BME280;60618;40.084;32.908;2023-09-12T04:32:55;89652.63;;;12.89;68.62
72585;BME280;60618;40.084;32.908;2023-09-12T04:35:22;89647.31;;;13.11;67.70
72585;BME280;60618;40.084;32.908;2023-09-12T04:37:49;89659.25;;;13.16;67.05
72585;BME280;60618;40.084;32.908;2023-09-12T04:40:16;89655.84;;;13.15;67.16
72585;BME280;60618;40.084;32.908;2023-09-12T04:42:43;89650.69;;;12.95;68.05
72585;BME280;60618;40.084;32.908;2023-09-12T04:45:10;89660.50;;;13.20;66.61
72585;BME280;60618;40.084;32.908;2023-09-12T04:47:37;89648.03;;;13.12;67.19
72585;BME280;60618;40.084;32.908;2023-09-12T04:50:05;89659.97;;;13.11;67.00
72585;BME280;60618;40.084;32.908;2023-09-12T04:52:32;89652.75;;;13.22;67.04
72585;BME280;60618;40.084;32.908;2023-09-12T04:55:00;89652.47;;;13.20;67.09
72585;BME280;60618;40.084;32.908;2023-09-12T04:57:28;89663.78;;;12.93;68.34
72585;BME280;60618;40.084;32.908;2023-09-12T04:59:55;89665.31;;;13.05;67.50
72585;BME280;60618;40.084;32.908;2023-09-12T05:02:22;89665.09;;;13.14;67.71
72585;BME280;60618;40.084;32.908;2023-09-12T05:04:49;89672.13;;;13.06;67.51
72585;BME280;60618;40.084;32.908;2023-09-12T05:07:16;89661.97;;;13.21;66.79
72585;BME280;60618;40.084;32.908;2023-09-12T05:09:43;89667.09;;;13.25;66.65
72585;BME280;60618;40.084;32.908;2023-09-12T05:12:10;89666.38;;;13.47;66.38
72585;BME280;60618;40.084;32.908;2023-09-12T05:14:37;89663.72;;;13.41;66.23
72585;BME280;60618;40.084;32.908;2023-09-12T05:17:04;89669.81;;;13.58;65.88
72585;BME280;60618;40.084;32.908;2023-09-12T05:19:31;89666.38;;;13.41;65.77
72585;BME280;60618;40.084;32.908;2023-09-12T05:21:58;89669.09;;;13.69;64.92
72585;BME280;60618;40.084;32.908;2023-09-12T05:24:25;89671.53;;;13.67;64.93
72585;BME280;60618;40.084;32.908;2023-09-12T05:26:52;89672.47;;;13.53;65.86
72585;BME280;60618;40.084;32.908;2023-09-12T05:29:19;89671.47;;;13.33;66.41
72585;BME280;60618;40.084;32.908;2023-09-12T05:31:46;89673.16;;;13.37;66.68
72585;BME280;60618;40.084;32.908;2023-09-12T05:34:13;89672.72;;;13.55;66.29
72585;BME280;60618;40.084;32.908;2023-09-12T05:36:40;89674.66;;;13.82;65.65
72585;BME280;60618;40.084;32.908;2023-09-12T05:39:07;89680.03;;;13.94;64.74
72585;BME280;60618;40.084;32.908;2023-09-12T05:41:34;89685.41;;;13.88;63.71
72585;BME280;60618;40.084;32.908;2023-09-12T05:44:01;89682.69;;;14.27;63.52
72585;BME280;60618;40.084;32.908;2023-09-12T05:46:28;89685.28;;;14.72;60.81
72585;BME280;60618;40.084;32.908;2023-09-12T05:48:55;89690.91;;;14.63;59.84
72585;BME280;60618;40.084;32.908;2023-09-12T05:51:22;89694.09;;;14.67;59.82
72585;BME280;60618;40.084;32.908;2023-09-12T05:53:50;89693.06;;;14.87;58.28
72585;BME280;60618;40.084;32.908;2023-09-12T05:56:17;89691.47;;;15.14;57.88
72585;BME280;60618;40.084;32.908;2023-09-12T05:58:43;89696.50;;;15.34;57.94
72585;BME280;60618;40.084;32.908;2023-09-12T06:01:11;89703.19;;;15.69;57.28
72585;BME280;60618;40.084;32.908;2023-09-12T06:03:38;89695.16;;;15.57;57.03
72585;BME280;60618;40.084;32.908;2023-09-12T06:06:05;89709.63;;;15.90;57.78
72585;BME280;60618;40.084;32.908;2023-09-12T06:08:32;89707.38;;;16.00;55.94
72585;BME280;60618;40.084;32.908;2023-09-12T06:10:59;89712.47;;;16.03;54.96
72585;BME280;60618;40.084;32.908;2023-09-12T06:13:26;89714.53;;;15.39;57.08
72585;BME280;60618;40.084;32.908;2023-09-12T06:15:53;89721.06;;;15.49;57.10
72585;BME280;60618;40.084;32.908;2023-09-12T06:18:20;89716.63;;;15.63;56.75
72585;BME280;60618;40.084;32.908;2023-09-12T06:20:47;89720.84;;;15.94;56.07
72585;BME280;60618;40.084;32.908;2023-09-12T06:23:14;89721.28;;;15.98;54.46
72585;BME280;60618;40.084;32.908;2023-09-12T06:25:41;89727.31;;;15.74;55.79
72585;BME280;60618;40.084;32.908;2023-09-12T06:28:09;89722.69;;;15.69;56.02
72585;BME280;60618;40.084;32.908;2023-09-12T06:30:36;89720.38;;;15.90;55.71
72585;BME280;60618;40.084;32.908;2023-09-12T06:33:03;89721.00;;;16.37;53.71
72585;BME280;60618;40.084;32.908;2023-09-12T06:35:31;89722.66;;;16.70;53.15
72585;BME280;60618;40.084;32.908;2023-09-12T06:37:58;89725.81;;;16.74;52.46
72585;BME280;60618;40.084;32.908;2023-09-12T06:40:25;89727.56;;;16.96;52.61
72585;BME280;60618;40.084;32.908;2023-09-12T06:42:52;89726.66;;;16.88;51.64
72585;BME280;60618;40.084;32.908;2023-09-12T06:45:19;89725.22;;;16.57;53.54
72585;BME280;60618;40.084;32.908;2023-09-12T06:47:49;89726.38;;;16.62;52.79
72585;BME280;60618;40.084;32.908;2023-09-12T06:50:16;89733.38;;;16.76;51.91
72585;BME280;60618;40.084;32.908;2023-09-12T06:52:43;89729.97;;;16.76;51.65
72585;BME280;60618;40.084;32.908;2023-09-12T06:55:10;89726.94;;;16.85;51.89
72585;BME280;60618;40.084;32.908;2023-09-12T06:57:37;89728.56;;;16.93;51.96
72585;BME280;60618;40.084;32.908;2023-09-12T07:00:05;89732.88;;;16.78;51.91
72585;BME280;60618;40.084;32.908;2023-09-12T07:02:32;89732.78;;;16.59;52.47
72585;BME280;60618;40.084;32.908;2023-09-12T07:04:59;89735.34;;;16.76;51.86
72585;BME280;60618;40.084;32.908;2023-09-12T07:07:26;89723.53;;;17.09;51.71
72585;BME280;60618;40.084;32.908;2023-09-12T07:09:53;89729.66;;;17.28;50.55
72585;BME280;60618;40.084;32.908;2023-09-12T07:12:34;89729.00;;;16.97;49.76
72585;BME280;60618;40.084;32.908;2023-09-12T07:15:01;89732.97;;;16.66;50.89
72585;BME280;60618;40.084;32.908;2023-09-12T07:17:28;89730.63;;;17.06;50.29
72585;BME280;60618;40.084;32.908;2023-09-12T07:19:55;89733.28;;;17.30;49.59
72585;BME280;60618;40.084;32.908;2023-09-12T07:22:22;89734.75;;;17.31;48.55
72585;BME280;60618;40.084;32.908;2023-09-12T07:24:49;89734.31;;;17.27;48.59
72585;BME280;60618;40.084;32.908;2023-09-12T07:27:16;89740.13;;;17.31;47.92
72585;BME280;60618;40.084;32.908;2023-09-12T07:29:43;89726.94;;;17.52;48.02
72585;BME280;60618;40.084;32.908;2023-09-12T07:32:10;89725.06;;;17.42;47.89
72585;BME280;60618;40.084;32.908;2023-09-12T07:34:37;89731.06;;;17.53;48.21
72585;BME280;60618;40.084;32.908;2023-09-12T07:37:04;89732.00;;;17.56;48.21
72585;BME280;60618;40.084;32.908;2023-09-12T07:39:31;89714.03;;;17.64;48.06
72585;BME280;60618;40.084;32.908;2023-09-12T07:41:58;89718.84;;;18.09;45.78
72585;BME280;60618;40.084;32.908;2023-09-12T07:44:28;89722.13;;;17.83;46.38
72585;BME280;60618;40.084;32.908;2023-09-12T07:46:55;89726.19;;;17.52;45.65
72585;BME280;60618;40.084;32.908;2023-09-12T07:49:21;89720.88;;;17.65;46.02
72585;BME280;60618;40.084;32.908;2023-09-12T07:51:48;89718.66;;;18.20;45.30
72585;BME280;60618;40.084;32.908;2023-09-12T07:54:15;89720.88;;;18.67;44.45
72585;BME280;60618;40.084;32.908;2023-09-12T07:56:42;89720.78;;;18.86;43.97
72585;BME280;60618;40.084;32.908;2023-09-12T07:59:09;89720.72;;;18.78;44.41
72585;BME280;60618;40.084;32.908;2023-09-12T08:01:36;89718.56;;;18.58;42.12
72585;BME280;60618;40.084;32.908;2023-09-12T08:04:03;89714.66;;;18.72;42.15
72585;BME280;60618;40.084;32.908;2023-09-12T08:06:32;89718.84;;;19.26;43.02
72585;BME280;60618;40.084;32.908;2023-09-12T08:09:09;89712.97;;;19.88;42.37
72585;BME280;60618;40.084;32.908;2023-09-12T08:11:36;89712.09;;;19.93;40.13
72585;BME280;60618;40.084;32.908;2023-09-12T08:14:03;89711.78;;;19.36;43.75
72585;BME280;60618;40.084;32.908;2023-09-12T08:16:30;89709.41;;;19.06;44.48
72585;BME280;60618;40.084;32.908;2023-09-12T08:18:57;89708.88;;;18.49;45.59
72585;BME280;60618;40.084;32.908;2023-09-12T08:21:24;89709.06;;;18.83;44.90
72585;BME280;60618;40.084;32.908;2023-09-12T08:23:51;89715.31;;;18.91;44.83
72585;BME280;60618;40.084;32.908;2023-09-12T08:26:18;89713.25;;;18.97;44.65
72585;BME280;60618;40.084;32.908;2023-09-12T08:28:45;89715.09;;;19.03;43.73
72585;BME280;60618;40.084;32.908;2023-09-12T08:31:12;89712.41;;;18.89;43.12
72585;BME280;60618;40.084;32.908;2023-09-12T08:33:39;89715.00;;;18.95;42.84
72585;BME280;60618;40.084;32.908;2023-09-12T08:36:06;89715.13;;;19.16;42.39
72585;BME280;60618;40.084;32.908;2023-09-12T08:38:33;89705.34;;;18.86;42.04
72585;BME280;60618;40.084;32.908;2023-09-12T08:41:00;89721.75;;;18.88;41.83
72585;BME280;60618;40.084;32.908;2023-09-12T08:43:26;89714.38;;;19.02;41.53
72585;BME280;60618;40.084;32.908;2023-09-12T08:45:53;89716.38;;;19.15;41.44
72585;BME280;60618;40.084;32.908;2023-09-12T08:48:21;89704.25;;;19.82;42.05
72585;BME280;60618;40.084;32.908;2023-09-12T08:50:51;89716.91;;;19.87;38.91
72585;BME280;60618;40.084;32.908;2023-09-12T08:53:19;89713.34;;;19.92;38.14
72585;BME280;60618;40.084;32.908;2023-09-12T08:55:46;89713.22;;;19.64;39.42
72585;BME280;60618;40.084;32.908;2023-09-12T08:58:13;89707.19;;;19.31;40.92
72585;BME280;60618;40.084;32.908;2023-09-12T09:00:41;89713.66;;;19.28;41.02
72585;BME280;60618;40.084;32.908;2023-09-12T09:03:09;89709.88;;;19.71;40.73
72585;BME280;60618;40.084;32.908;2023-09-12T09:05:37;89710.91;;;19.81;39.42
72585;BME280;60618;40.084;32.908;2023-09-12T09:08:07;89711.56;;;19.61;39.49
72585;BME280;60618;40.084;32.908;2023-09-12T09:10:34;89706.91;;;19.95;38.67
72585;BME280;60618;40.084;32.908;2023-09-12T09:13:17;89713.72;;;20.09;38.94
72585;BME280;60618;40.084;32.908;2023-09-12T09:15:43;89704.34;;;20.10;39.99
72585;BME280;60618;40.084;32.908;2023-09-12T09:18:11;89717.47;;;20.61;37.04
72585;BME280;60618;40.084;32.908;2023-09-12T09:20:39;89712.53;;;20.52;37.29
72585;BME280;60618;40.084;32.908;2023-09-12T09:23:08;89712.84;;;20.69;36.94
72585;BME280;60618;40.084;32.908;2023-09-12T09:25:36;89712.34;;;20.50;36.77
72585;BME280;60618;40.084;32.908;2023-09-12T09:28:04;89718.88;;;20.21;36.94
72585;BME280;60618;40.084;32.908;2023-09-12T09:30:42;89705.25;;;20.47;37.00
72585;BME280;60618;40.084;32.908;2023-09-12T09:33:10;89696.88;;;21.08;36.93
72585;BME280;60618;40.084;32.908;2023-09-12T09:35:38;89703.91;;;21.03;35.89
72585;BME280;60618;40.084;32.908;2023-09-12T09:38:08;89707.31;;;20.54;37.61
72585;BME280;60618;40.084;32.908;2023-09-12T09:40:35;89701.00;;;20.18;37.53
72585;BME280;60618;40.084;32.908;2023-09-12T09:43:03;89709.16;;;20.59;37.31
72585;BME280;60618;40.084;32.908;2023-09-12T09:45:31;89696.09;;;19.95;38.56
72585;BME280;60618;40.084;32.908;2023-09-12T09:48:05;89705.22;;;20.05;38.39
72585;BME280;60618;40.084;32.908;2023-09-12T09:50:34;89700.03;;;19.94;38.22
72585;BME280;60618;40.084;32.908;2023-09-12T09:53:01;89697.75;;;19.98;39.03
72585;BME280;60618;40.084;32.908;2023-09-12T09:55:28;89702.91;;;20.30;37.73
72585;BME280;60618;40.084;32.908;2023-09-12T09:57:55;89701.53;;;20.37;38.15
72585;BME280;60618;40.084;32.908;2023-09-12T10:00:22;89692.03;;;20.23;35.91
72585;BME280;60618;40.084;32.908;2023-09-12T10:02:50;89692.88;;;20.18;35.22
72585;BME280;60618;40.084;32.908;2023-09-12T10:05:18;89691.13;;;20.41;34.59
72585;BME280;60618;40.084;32.908;2023-09-12T10:07:48;89703.47;;;20.71;35.94
72585;BME280;60618;40.084;32.908;2023-09-12T10:10:16;89697.19;;;20.76;36.21
72585;BME280;60618;40.084;32.908;2023-09-12T10:12:49;89688.56;;;20.77;35.65
72585;BME280;60618;40.084;32.908;2023-09-12T10:15:19;89691.50;;;20.66;35.81
72585;BME280;60618;40.084;32.908;2023-09-12T10:17:57;89700.56;;;20.68;35.32
72585;BME280;60618;40.084;32.908;2023-09-12T10:20:29;89693.13;;;20.61;35.58
72585;BME280;60618;40.084;32.908;2023-09-12T10:23:08;89694.84;;;20.51;35.31
72585;BME280;60618;40.084;32.908;2023-09-12T10:25:36;89692.31;;;20.53;35.35
72585;BME280;60618;40.084;32.908;2023-09-12T10:28:07;89690.00;;;20.57;35.64
72585;BME280;60618;40.084;32.908;2023-09-12T10:30:35;89703.53;;;20.57;36.17
72585;BME280;60618;40.084;32.908;2023-09-12T10:33:03;89697.84;;;20.89;34.91
72585;BME280;60618;40.084;32.908;2023-09-12T10:35:31;89697.47;;;20.93;33.93
72585;BME280;60618;40.084;32.908;2023-09-12T10:38:02;89698.06;;;20.71;32.39
72585;BME280;60618;40.084;32.908;2023-09-12T10:40:31;89699.44;;;20.85;32.57
72585;BME280;60618;40.084;32.908;2023-09-12T10:42:59;89705.91;;;21.10;33.36
72585;BME280;60618;40.084;32.908;2023-09-12T10:45:29;89692.53;;;21.33;32.70
72585;BME280;60618;40.084;32.908;2023-09-12T10:48:00;89692.63;;;21.56;32.51
72585;BME280;60618;40.084;32.908;2023-09-12T10:50:32;89690.81;;;21.51;33.14
72585;BME280;60618;40.084;32.908;2023-09-12T10:53:15;89691.91;;;21.48;33.23
72585;BME280;60618;40.084;32.908;2023-09-12T10:56:20;89680.81;;;21.90;31.22
72585;BME280;60618;40.084;32.908;2023-09-12T11:01:33;89679.28;;;22.17;30.93
72585;BME280;60618;40.084;32.908;2023-09-12T11:06:57;89684.06;;;21.08;33.01
72585;BME280;60618;40.084;32.908;2023-09-12T11:09:33;89683.00;;;21.40;31.57
72585;BME280;60618;40.084;32.908;2023-09-12T11:12:05;89676.81;;;21.75;31.37
72585;BME280;60618;40.084;32.908;2023-09-12T11:14:36;89679.03;;;21.92;30.40
72585;BME280;60618;40.084;32.908;2023-09-12T11:17:29;89682.88;;;21.53;31.28
72585;BME280;60618;40.084;32.908;2023-09-12T11:20:02;89696.38;;;21.45;31.19
72585;BME280;60618;40.084;32.908;2023-09-12T11:22:31;89680.78;;;21.74;31.95
72585;BME280;60618;40.084;32.908;2023-09-12T11:25:02;89680.06;;;21.38;31.61
72585;BME280;60618;40.084;32.908;2023-09-12T11:27:45;89677.00;;;21.34;32.56
72585;BME280;60618;40.084;32.908;2023-09-12T11:30:13;89672.16;;;21.47;31.86
72585;BME280;60618;40.084;32.908;2023-09-12T11:32:40;89663.34;;;21.18;31.36
72585;BME280;60618;40.084;32.908;2023-09-12T11:35:10;89667.31;;;21.53;31.23
72585;BME280;60618;40.084;32.908;2023-09-12T11:37:37;89653.25;;;21.63;30.72
72585;BME280;60618;40.084;32.908;2023-09-12T11:40:26;89663.41;;;21.70;30.48
72585;BME280;60618;40.084;32.908;2023-09-12T11:43:17;89660.69;;;21.62;30.74
72585;BME280;60618;40.084;32.908;2023-09-12T11:45:44;89657.31;;;21.33;30.94
72585;BME280;60618;40.084;32.908;2023-09-12T11:48:12;89661.41;;;21.27;31.40
72585;BME280;60618;40.084;32.908;2023-09-12T11:50:39;89655.13;;;21.32;30.81
72585;BME280;60618;40.084;32.908;2023-09-12T11:53:08;89649.97;;;21.57;30.38
72585;BME280;60618;40.084;32.908;2023-09-12T11:55:46;89656.41;;;21.82;30.15
72585;BME280;60618;40.084;32.908;2023-09-12T11:58:16;89657.31;;;21.85;30.57
72585;BME280;60618;40.084;32.908;2023-09-12T12:00:45;89654.72;;;21.64;29.77
72585;BME280;60618;40.084;32.908;2023-09-12T12:03:14;89658.25;;;21.43;29.95
72585;BME280;60618;40.084;32.908;2023-09-12T12:05:41;89658.22;;;21.36;30.13
72585;BME280;60618;40.084;32.908;2023-09-12T12:08:10;89646.00;;;21.50;29.85
72585;BME280;60618;40.084;32.908;2023-09-12T12:10:57;89643.28;;;21.50;29.43
72585;BME280;60618;40.084;32.908;2023-09-12T12:13:24;89643.53;;;21.67;28.46
72585;BME280;60618;40.084;32.908;2023-09-12T12:15:51;89631.00;;;21.13;29.10
72585;BME280;60618;40.084;32.908;2023-09-12T12:18:19;89636.44;;;21.20;28.77
72585;BME280;60618;40.084;32.908;2023-09-12T12:20:46;89638.66;;;21.30;29.65
72585;BME280;60618;40.084;32.908;2023-09-12T12:23:13;89635.38;;;21.60;28.84
72585;BME280;60618;40.084;32.908;2023-09-12T12:25:40;89637.38;;;21.74;29.42
72585;BME280;60618;40.084;32.908;2023-09-12T12:28:07;89618.97;;;21.80;28.52
72585;BME280;60618;40.084;32.908;2023-09-12T12:30:35;89616.31;;;21.96;28.20
72585;BME280;60618;40.084;32.908;2023-09-12T12:33:09;89623.22;;;22.27;27.86
72585;BME280;60618;40.084;32.908;2023-09-12T12:36:00;89624.16;;;22.53;27.97
72585;BME280;60618;40.084;32.908;2023-09-12T12:38:32;89623.63;;;22.31;27.55
72585;BME280;60618;40.084;32.908;2023-09-12T12:41:00;89617.34;;;21.77;28.40
72585;BME280;60618;40.084;32.908;2023-09-12T12:43:28;89629.50;;;21.84;28.93
72585;BME280;60618;40.084;32.908;2023-09-12T12:45:56;89616.50;;;22.05;27.62
72585;BME280;60618;40.084;32.908;2023-09-12T12:48:34;89615.81;;;22.13;27.66
72585;BME280;60618;40.084;32.908;2023-09-12T12:51:27;89616.91;;;22.32;28.55
72585;BME280;60618;40.084;32.908;2023-09-12T12:54:02;89618.94;;;21.65;27.52
72585;BME280;60618;40.084;32.908;2023-09-12T12:56:30;89615.25;;;21.40;26.84
72585;BME280;60618;40.084;32.908;2023-09-12T12:58:59;89607.03;;;21.68;27.71
72585;BME280;60618;40.084;32.908;2023-09-12T13:01:27;89624.31;;;21.50;27.89
72585;BME280;60618;40.084;32.908;2023-09-12T13:03:54;89619.13;;;21.60;27.95
72585;BME280;60618;40.084;32.908;2023-09-12T13:06:21;89617.28;;;21.54;28.19
72585;BME280;60618;40.084;32.908;2023-09-12T13:08:51;89606.13;;;21.73;27.86